createdAt,value
2022-12-05T00:00:53.763Z,100121.31
2022-12-05T00:10:59.759Z,100113.25
2022-12-05T00:21:06.385Z,100106.39
2022-12-05T00:31:16.259Z,100105.70
2022-12-05T00:41:24.354Z,100116.88
2022-12-05T00:51:32.259Z,100107.42
2022-12-05T01:01:40.322Z,100095.41
2022-12-05T01:11:46.523Z,100089.42
2022-12-05T01:21:53.000Z,100085.14
2022-12-05T01:31:58.890Z,100085.98
2022-12-05T01:42:07.280Z,100093.04
2022-12-05T01:52:17.019Z,100089.45
2022-12-05T02:02:22.990Z,100071.94
2022-12-05T02:12:28.955Z,100072.62
2022-12-05T02:23:10.051Z,100085.49
2022-12-05T02:33:24.632Z,100069.87
2022-12-05T02:43:38.235Z,100050.28
2022-12-05T02:53:47.933Z,100046.86
2022-12-05T03:03:54.245Z,100038.80
2022-12-05T03:14:04.208Z,100029.19
2022-12-05T03:24:13.546Z,100031.27
2022-12-05T03:34:27.271Z,100021.30
2022-12-05T03:44:43.543Z,100026.63
2022-12-05T03:54:54.401Z,100031.24
2022-12-05T04:05:05.488Z,100048.92
2022-12-05T04:15:16.039Z,100051.17
2022-12-05T04:25:59.808Z,100054.27
2022-12-05T04:36:13.108Z,100047.55
2022-12-05T04:46:22.267Z,100045.66
2022-12-05T04:56:34.659Z,100051.30
2022-12-05T05:06:42.220Z,100049.56
2022-12-05T05:16:48.549Z,100047.88
2022-12-05T05:26:57.420Z,100044.95
2022-12-05T05:37:03.495Z,100037.19
2022-12-05T05:47:09.327Z,100026.72
2022-12-05T05:57:20.103Z,100022.08
2022-12-05T06:07:26.530Z,100021.73
2022-12-05T06:17:32.659Z,100013.14
2022-12-05T06:27:38.852Z,100014.34
2022-12-05T06:37:45.244Z,100016.92
2022-12-05T06:47:51.528Z,100014.86
2022-12-05T06:57:58.126Z,100013.33
2022-12-05T07:08:04.235Z,100011.59
2022-12-05T07:18:10.214Z,100016.72
2022-12-05T07:28:16.012Z,100013.59
2022-12-05T07:38:22.156Z,100006.00
2022-12-05T07:48:27.831Z,100014.90
2022-12-05T07:58:35.285Z,100014.00
2022-12-05T08:08:41.113Z,100008.77
2022-12-05T08:18:48.730Z,100011.80
2022-12-05T08:28:56.077Z,100013.27
2022-12-05T08:39:08.358Z,99995.61
2022-12-05T08:49:14.803Z,99991.35
2022-12-05T08:59:23.814Z,99996.55
2022-12-05T09:09:30.308Z,99998.34
2022-12-05T09:19:39.871Z,99995.62
2022-12-05T09:29:46.166Z,99992.08
2022-12-05T09:39:52.273Z,99988.73
2022-12-05T09:50:03.977Z,99980.17
2022-12-05T10:00:13.690Z,99966.16
2022-12-05T10:10:34.657Z,99963.98
2022-12-05T10:20:48.773Z,99963.27
2022-12-05T10:31:01.603Z,99954.35
2022-12-05T10:41:09.683Z,99944.01
2022-12-05T10:51:19.365Z,99933.64
2022-12-05T11:01:26.951Z,99920.14
2022-12-05T11:11:35.650Z,99913.30
2022-12-05T11:21:46.218Z,99910.73
2022-12-05T11:31:54.824Z,99901.48
2022-12-05T11:42:35.475Z,99895.97
2022-12-05T11:52:56.397Z,99893.56
2022-12-05T12:03:46.033Z,99880.03
2022-12-05T12:14:07.495Z,99872.88
2022-12-05T12:24:26.394Z,99856.45
2022-12-05T12:34:59.709Z,99853.95
2022-12-05T12:45:42.150Z,99853.12
2022-12-05T12:56:04.196Z,99842.93
2022-12-05T13:06:25.696Z,99846.04
2022-12-05T13:16:45.617Z,99836.13
2022-12-05T13:26:52.402Z,99826.00
2022-12-05T13:37:37.672Z,99827.59
2022-12-05T13:47:56.964Z,99844.67
2022-12-05T13:58:45.836Z,99843.79
2022-12-05T14:08:56.631Z,99831.92
2022-12-05T14:19:14.963Z,99840.83
2022-12-05T14:29:38.642Z,99839.61
2022-12-05T14:40:00.653Z,99833.74
2022-12-05T14:50:38.559Z,99830.48
2022-12-05T15:00:48.094Z,99824.43
2022-12-05T15:11:28.326Z,99815.80
2022-12-05T15:21:40.011Z,99813.90
2022-12-05T15:32:15.803Z,99810.55
2022-12-05T15:42:43.061Z,99803.43
2022-12-05T15:53:04.000Z,99802.79
2022-12-05T16:03:38.717Z,99797.04
2022-12-05T16:13:46.513Z,99797.50
2022-12-05T16:24:21.535Z,99785.05
2022-12-05T16:34:47.732Z,99776.42
2022-12-05T16:45:03.550Z,99772.94
2022-12-05T16:55:15.272Z,99766.67
2022-12-05T17:05:22.424Z,99763.89
2022-12-05T17:15:48.564Z,99760.23
2022-12-05T17:25:58.162Z,99765.19
2022-12-05T17:36:23.768Z,99765.98
2022-12-05T17:46:49.369Z,99763.19
2022-12-05T17:57:14.949Z,99765.35
2022-12-05T18:07:27.745Z,99770.21
2022-12-05T18:17:53.237Z,99771.99
2022-12-05T18:28:19.680Z,99773.61
2022-12-05T18:38:52.419Z,99772.17
2022-12-05T18:49:05.334Z,99769.86
2022-12-05T18:59:30.857Z,99771.48
2022-12-05T19:09:56.551Z,99771.58
2022-12-05T19:20:22.093Z,99763.77
2022-12-05T19:30:47.526Z,99757.54
2022-12-05T19:41:10.860Z,99755.55
2022-12-05T19:51:22.137Z,99746.48
2022-12-05T20:01:47.745Z,99742.41
2022-12-05T20:12:13.346Z,99735.92
2022-12-05T20:22:39.158Z,99732.11
2022-12-05T20:33:04.717Z,99736.91
2022-12-05T20:43:30.820Z,99729.88
2022-12-05T20:53:56.771Z,99722.64
2022-12-05T21:04:22.335Z,99717.35
2022-12-05T21:14:48.158Z,99702.45
2022-12-05T21:25:13.827Z,99698.73
2022-12-05T21:35:39.385Z,99708.97
2022-12-05T21:46:06.047Z,99703.26
2022-12-05T21:56:31.649Z,99708.96
2022-12-05T22:06:57.201Z,99708.56
2022-12-05T22:17:22.728Z,99704.71
2022-12-05T22:27:48.393Z,99700.42
2022-12-05T22:38:13.953Z,99691.97
2022-12-05T22:48:39.809Z,99680.11
2022-12-05T22:59:06.627Z,99675.08
2022-12-05T23:09:34.854Z,99671.02
2022-12-05T23:20:00.772Z,99665.17
2022-12-05T23:30:26.458Z,99668.02
2022-12-05T23:41:02.398Z,99652.58
2022-12-05T23:51:30.078Z,99650.61
